sensor_id;sensor_type;location;lat;lon;timestamp;temperature;humidity
12013;DHT22;6065;48.138;16.402;2023-01-08T00:00:43;5.80;99.90
12013;DHT22;6065;48.138;16.402;2023-01-08T00:03:09;5.90;99.90
12013;DHT22;6065;48.138;16.402;2023-01-08T00:05:36;5.90;99.90
12013;DHT22;6065;48.138;16.402;2023-01-08T00:08:03;6.00;99.90
12013;DHT22;6065;48.138;16.402;2023-01-08T00:10:32;6.00;99.90
12013;DHT22;6065;48.138;16.402;2023-01-08T00:12:59;6.10;99.90
12013;DHT22;6065;48.138;16.402;2023-01-08T00:15:26;6.10;99.90
12013;DHT22;6065;48.138;16.402;2023-01-08T00:17:55;6.10;99.90
12013;DHT22;6065;48.138;16.402;2023-01-08T00:20:22;6.10;99.90
12013;DHT22;6065;48.138;16.402;2023-01-08T00:22:50;6.10;99.90
12013;DHT22;6065;48.138;16.402;2023-01-08T00:25:16;5.90;99.90
12013;DHT22;6065;48.138;16.402;2023-01-08T00:27:43;5.80;99.90
12013;DHT22;6065;48.138;16.402;2023-01-08T00:30:10;5.80;99.90
12013;DHT22;6065;48.138;16.402;2023-01-08T00:32:37;5.80;99.90
12013;DHT22;6065;48.138;16.402;2023-01-08T00:35:06;5.80;99.90
12013;DHT22;6065;48.138;16.402;2023-01-08T00:37:32;5.90;99.90
12013;DHT22;6065;48.138;16.402;2023-01-08T00:39:59;5.90;99.90
12013;DHT22;6065;48.138;16.402;2023-01-08T00:42:26;6.00;99.90
12013;DHT22;6065;48.138;16.402;2023-01-08T00:44:52;6.00;99.90
12013;DHT22;6065;48.138;16.402;2023-01-08T00:47:19;6.00;99.90
12013;DHT22;6065;48.138;16.402;2023-01-08T00:49:46;6.10;99.90
12013;DHT22;6065;48.138;16.402;2023-01-08T00:52:14;6.10;99.90
12013;DHT22;6065;48.138;16.402;2023-01-08T00:54:41;6.10;99.90
12013;DHT22;6065;48.138;16.402;2023-01-08T00:57:07;6.10;99.90
12013;DHT22;6065;48.138;16.402;2023-01-08T00:59:34;6.10;99.90
12013;DHT22;6065;48.138;16.402;2023-01-08T01:02:01;6.10;99.90
12013;DHT22;6065;48.138;16.402;2023-01-08T01:04:27;6.10;99.90
12013;DHT22;6065;48.138;16.402;2023-01-08T01:06:54;6.10;99.90
12013;DHT22;6065;48.138;16.402;2023-01-08T01:09:22;6.00;99.90
12013;DHT22;6065;48.138;16.402;2023-01-08T01:11:49;6.00;99.90
12013;DHT22;6065;48.138;16.402;2023-01-08T01:14:15;6.00;99.90
12013;DHT22;6065;48.138;16.402;2023-01-08T01:16:42;6.00;99.90
12013;DHT22;6065;48.138;16.402;2023-01-08T01:19:12;6.00;99.90
12013;DHT22;6065;48.138;16.402;2023-01-08T01:21:39;6.00;99.90
12013;DHT22;6065;48.138;16.402;2023-01-08T01:24:06;6.00;99.90
12013;DHT22;6065;48.138;16.402;2023-01-08T01:26:34;6.00;99.90
12013;DHT22;6065;48.138;16.402;2023-01-08T01:29:01;6.10;99.90
12013;DHT22;6065;48.138;16.402;2023-01-08T01:31:29;5.90;99.90
12013;DHT22;6065;48.138;16.402;2023-01-08T01:33:56;6.00;99.90
12013;DHT22;6065;48.138;16.402;2023-01-08T01:36:23;6.00;99.90
12013;DHT22;6065;48.138;16.402;2023-01-08T01:38:51;6.00;99.90
12013;DHT22;6065;48.138;16.402;2023-01-08T01:41:20;6.00;99.90
12013;DHT22;6065;48.138;16.402;2023-01-08T01:43:50;6.00;99.90
12013;DHT22;6065;48.138;16.402;2023-01-08T01:46:19;6.10;99.90
12013;DHT22;6065;48.138;16.402;2023-01-08T01:48:48;6.00;99.90
12013;DHT22;6065;48.138;16.402;2023-01-08T01:51:16;6.00;99.90
12013;DHT22;6065;48.138;16.402;2023-01-08T01:53:43;6.00;99.90
12013;DHT22;6065;48.138;16.402;2023-01-08T01:56:10;5.90;99.90
12013;DHT22;6065;48.138;16.402;2023-01-08T01:58:37;5.90;99.90
12013;DHT22;6065;48.138;16.402;2023-01-08T02:01:06;5.90;99.90
12013;DHT22;6065;48.138;16.402;2023-01-08T02:03:34;6.00;99.90
12013;DHT22;6065;48.138;16.402;2023-01-08T02:06:02;6.00;99.90
12013;DHT22;6065;48.138;16.402;2023-01-08T02:08:33;6.00;99.90
12013;DHT22;6065;48.138;16.402;2023-01-08T02:11:04;6.00;99.90
12013;DHT22;6065;48.138;16.402;2023-01-08T02:13:33;6.00;99.90
12013;DHT22;6065;48.138;16.402;2023-01-08T02:16:03;6.00;99.90
12013;DHT22;6065;48.138;16.402;2023-01-08T02:18:33;6.00;99.90
12013;DHT22;6065;48.138;16.402;2023-01-08T02:21:04;5.90;99.90
12013;DHT22;6065;48.138;16.402;2023-01-08T02:23:36;5.90;99.90
12013;DHT22;6065;48.138;16.402;2023-01-08T02:26:08;5.80;99.90
12013;DHT22;6065;48.138;16.402;2023-01-08T02:28:37;5.60;99.90
12013;DHT22;6065;48.138;16.402;2023-01-08T02:31:05;5.60;99.90
12013;DHT22;6065;48.138;16.402;2023-01-08T02:33:32;5.60;99.90
12013;DHT22;6065;48.138;16.402;2023-01-08T02:38:49;5.60;99.90
12013;DHT22;6065;48.138;16.402;2023-01-08T02:41:19;5.70;99.90
12013;DHT22;6065;48.138;16.402;2023-01-08T02:43:51;5.70;99.90
12013;DHT22;6065;48.138;16.402;2023-01-08T02:46:21;5.60;99.90
12013;DHT22;6065;48.138;16.402;2023-01-08T02:48:50;5.50;99.90
12013;DHT22;6065;48.138;16.402;2023-01-08T02:51:20;5.30;99.90
12013;DHT22;6065;48.138;16.402;2023-01-08T02:53:49;5.30;99.90
12013;DHT22;6065;48.138;16.402;2023-01-08T02:56:17;5.20;99.90
12013;DHT22;6065;48.138;16.402;2023-01-08T02:58:45;5.20;99.90
12013;DHT22;6065;48.138;16.402;2023-01-08T03:01:14;5.20;99.90
12013;DHT22;6065;48.138;16.402;2023-01-08T03:03:42;5.10;99.90
12013;DHT22;6065;48.138;16.402;2023-01-08T03:06:11;5.10;99.90
12013;DHT22;6065;48.138;16.402;2023-01-08T03:08:40;5.10;99.90
12013;DHT22;6065;48.138;16.402;2023-01-08T03:11:07;5.00;99.90
12013;DHT22;6065;48.138;16.402;2023-01-08T03:13:36;5.00;99.90
12013;DHT22;6065;48.138;16.402;2023-01-08T03:16:06;5.10;99.90
12013;DHT22;6065;48.138;16.402;2023-01-08T03:18:34;5.10;99.90
12013;DHT22;6065;48.138;16.402;2023-01-08T03:21:03;5.20;99.90
12013;DHT22;6065;48.138;16.402;2023-01-08T03:23:30;5.10;99.90
12013;DHT22;6065;48.138;16.402;2023-01-08T03:25:58;5.20;99.90
12013;DHT22;6065;48.138;16.402;2023-01-08T03:28:26;5.10;99.90
12013;DHT22;6065;48.138;16.402;2023-01-08T03:30:54;5.20;99.90
12013;DHT22;6065;48.138;16.402;2023-01-08T03:33:24;5.20;99.90
12013;DHT22;6065;48.138;16.402;2023-01-08T03:35:52;5.20;99.90
12013;DHT22;6065;48.138;16.402;2023-01-08T03:38:19;5.20;99.90
12013;DHT22;6065;48.138;16.402;2023-01-08T03:40:49;5.30;99.90
12013;DHT22;6065;48.138;16.402;2023-01-08T03:43:17;5.30;99.90
12013;DHT22;6065;48.138;16.402;2023-01-08T03:45:45;5.30;99.90
12013;DHT22;6065;48.138;16.402;2023-01-08T03:48:14;5.40;99.90
12013;DHT22;6065;48.138;16.402;2023-01-08T03:50:42;5.40;99.90
12013;DHT22;6065;48.138;16.402;2023-01-08T03:53:09;5.30;99.90
12013;DHT22;6065;48.138;16.402;2023-01-08T03:55:36;5.30;99.90
12013;DHT22;6065;48.138;16.402;2023-01-08T03:58:03;5.20;99.90
12013;DHT22;6065;48.138;16.402;2023-01-08T04:00:29;5.20;99.90
12013;DHT22;6065;48.138;16.402;2023-01-08T04:02:56;5.20;99.90
12013;DHT22;6065;48.138;16.402;2023-01-08T04:05:23;5.20;99.90
12013;DHT22;6065;48.138;16.402;2023-01-08T04:07:52;5.20;99.90
12013;DHT22;6065;48.138;16.402;2023-01-08T04:10:19;5.10;99.90
12013;DHT22;6065;48.138;16.402;2023-01-08T04:12:46;5.10;99.90
12013;DHT22;6065;48.138;16.402;2023-01-08T04:15:13;5.10;99.90
12013;DHT22;6065;48.138;16.402;2023-01-08T04:17:40;5.20;99.90
12013;DHT22;6065;48.138;16.402;2023-01-08T04:20:06;5.20;99.90
12013;DHT22;6065;48.138;16.402;2023-01-08T04:22:33;5.20;99.90
12013;DHT22;6065;48.138;16.402;2023-01-08T04:25:01;5.30;99.90
12013;DHT22;6065;48.138;16.402;2023-01-08T04:27:28;5.30;99.90
12013;DHT22;6065;48.138;16.402;2023-01-08T04:29:55;5.20;99.90
12013;DHT22;6065;48.138;16.402;2023-01-08T04:32:21;5.20;99.90
12013;DHT22;6065;48.138;16.402;2023-01-08T04:34:48;5.20;99.90
12013;DHT22;6065;48.138;16.402;2023-01-08T04:37:15;5.20;99.90
12013;DHT22;6065;48.138;16.402;2023-01-08T04:39:41;5.30;99.90
12013;DHT22;6065;48.138;16.402;2023-01-08T04:42:09;5.30;99.90
12013;DHT22;6065;48.138;16.402;2023-01-08T04:44:36;5.30;99.90
12013;DHT22;6065;48.138;16.402;2023-01-08T04:47:03;5.30;99.90
12013;DHT22;6065;48.138;16.402;2023-01-08T04:49:29;5.20;99.90
12013;DHT22;6065;48.138;16.402;2023-01-08T04:51:56;5.20;99.90
12013;DHT22;6065;48.138;16.402;2023-01-08T04:54:23;5.20;99.90
12013;DHT22;6065;48.138;16.402;2023-01-08T04:56:49;5.20;99.90
12013;DHT22;6065;48.138;16.402;2023-01-08T04:59:18;5.10;99.90
12013;DHT22;6065;48.138;16.402;2023-01-08T05:01:45;5.10;99.90
12013;DHT22;6065;48.138;16.402;2023-01-08T05:04:14;5.20;99.90
12013;DHT22;6065;48.138;16.402;2023-01-08T05:06:41;5.20;99.90
12013;DHT22;6065;48.138;16.402;2023-01-08T05:09:07;5.20;99.90
12013;DHT22;6065;48.138;16.402;2023-01-08T05:11:36;5.20;99.90
12013;DHT22;6065;48.138;16.402;2023-01-08T05:14:02;5.10;99.90
12013;DHT22;6065;48.138;16.402;2023-01-08T05:16:30;5.10;99.90
12013;DHT22;6065;48.138;16.402;2023-01-08T05:18:57;5.10;99.90
12013;DHT22;6065;48.138;16.402;2023-01-08T05:21:24;5.10;99.90
12013;DHT22;6065;48.138;16.402;2023-01-08T05:23:51;5.10;99.90
12013;DHT22;6065;48.138;16.402;2023-01-08T05:26:17;5.10;99.90
12013;DHT22;6065;48.138;16.402;2023-01-08T05:28:44;5.10;99.90
12013;DHT22;6065;48.138;16.402;2023-01-08T05:31:11;5.10;99.90
12013;DHT22;6065;48.138;16.402;2023-01-08T05:33:39;5.10;99.90
12013;DHT22;6065;48.138;16.402;2023-01-08T05:36:06;5.10;99.90
12013;DHT22;6065;48.138;16.402;2023-01-08T05:38:33;5.10;99.90
12013;DHT22;6065;48.138;16.402;2023-01-08T05:41:00;5.10;99.90
12013;DHT22;6065;48.138;16.402;2023-01-08T05:43:27;5.10;99.90
12013;DHT22;6065;48.138;16.402;2023-01-08T05:45:56;5.10;99.90
12013;DHT22;6065;48.138;16.402;2023-01-08T05:48:23;5.10;99.90
12013;DHT22;6065;48.138;16.402;2023-01-08T05:50:51;5.10;99.90
12013;DHT22;6065;48.138;16.402;2023-01-08T05:53:17;5.00;99.90
12013;DHT22;6065;48.138;16.402;2023-01-08T05:55:44;5.00;99.90
12013;DHT22;6065;48.138;16.402;2023-01-08T05:58:11;4.90;99.90
12013;DHT22;6065;48.138;16.402;2023-01-08T06:00:37;4.90;99.90
12013;DHT22;6065;48.138;16.402;2023-01-08T06:03:05;4.90;99.90
12013;DHT22;6065;48.138;16.402;2023-01-08T06:05:34;5.00;99.90
12013;DHT22;6065;48.138;16.402;2023-01-08T06:08:02;5.00;99.90
12013;DHT22;6065;48.138;16.402;2023-01-08T06:10:29;5.00;99.90
12013;DHT22;6065;48.138;16.402;2023-01-08T06:12:55;5.00;99.90
12013;DHT22;6065;48.138;16.402;2023-01-08T06:15:22;4.90;99.90
12013;DHT22;6065;48.138;16.402;2023-01-08T06:17:48;5.00;99.90
12013;DHT22;6065;48.138;16.402;2023-01-08T06:20:15;4.90;99.90
12013;DHT22;6065;48.138;16.402;2023-01-08T06:22:42;4.90;99.90
12013;DHT22;6065;48.138;16.402;2023-01-08T06:25:10;4.90;99.90
12013;DHT22;6065;48.138;16.402;2023-01-08T06:27:37;4.80;99.90
12013;DHT22;6065;48.138;16.402;2023-01-08T06:30:04;4.80;99.90
12013;DHT22;6065;48.138;16.402;2023-01-08T06:32:31;4.70;99.90
12013;DHT22;6065;48.138;16.402;2023-01-08T06:34:57;4.70;99.90
12013;DHT22;6065;48.138;16.402;2023-01-08T06:37:24;4.70;99.90
12013;DHT22;6065;48.138;16.402;2023-01-08T06:39:51;4.60;99.90
12013;DHT22;6065;48.138;16.402;2023-01-08T06:42:19;4.60;99.90
12013;DHT22;6065;48.138;16.402;2023-01-08T06:44:46;4.60;99.90
12013;DHT22;6065;48.138;16.402;2023-01-08T06:47:12;4.70;99.90
12013;DHT22;6065;48.138;16.402;2023-01-08T06:49:39;4.70;99.90
12013;DHT22;6065;48.138;16.402;2023-01-08T06:52:06;4.70;99.90
12013;DHT22;6065;48.138;16.402;2023-01-08T06:54:32;4.70;99.90
12013;DHT22;6065;48.138;16.402;2023-01-08T06:56:59;4.70;99.90
12013;DHT22;6065;48.138;16.402;2023-01-08T06:59:27;4.70;99.90
12013;DHT22;6065;48.138;16.402;2023-01-08T07:01:54;4.70;99.90
12013;DHT22;6065;48.138;16.402;2023-01-08T07:04:20;4.80;99.90
12013;DHT22;6065;48.138;16.402;2023-01-08T07:06:47;4.80;99.90
12013;DHT22;6065;48.138;16.402;2023-01-08T07:09:14;4.80;99.90
12013;DHT22;6065;48.138;16.402;2023-01-08T07:11:41;4.80;99.90
12013;DHT22;6065;48.138;16.402;2023-01-08T07:14:08;4.80;99.90
12013;DHT22;6065;48.138;16.402;2023-01-08T07:16:36;4.90;99.90
12013;DHT22;6065;48.138;16.402;2023-01-08T07:19:02;4.90;99.90
12013;DHT22;6065;48.138;16.402;2023-01-08T07:21:29;4.90;99.90
12013;DHT22;6065;48.138;16.402;2023-01-08T07:23:56;4.90;99.90
12013;DHT22;6065;48.138;16.402;2023-01-08T07:26:23;4.90;99.90
12013;DHT22;6065;48.138;16.402;2023-01-08T07:28:50;4.90;99.90
12013;DHT22;6065;48.138;16.402;2023-01-08T07:31:17;4.90;99.90
12013;DHT22;6065;48.138;16.402;2023-01-08T07:33:45;4.90;99.90
12013;DHT22;6065;48.138;16.402;2023-01-08T07:36:11;4.90;99.90
12013;DHT22;6065;48.138;16.402;2023-01-08T07:38:38;4.80;99.90
12013;DHT22;6065;48.138;16.402;2023-01-08T07:41:05;4.80;99.90
12013;DHT22;6065;48.138;16.402;2023-01-08T07:43:31;4.80;99.90
12013;DHT22;6065;48.138;16.402;2023-01-08T07:46:00;4.80;99.90
12013;DHT22;6065;48.138;16.402;2023-01-08T07:48:27;4.70;99.90
12013;DHT22;6065;48.138;16.402;2023-01-08T07:50:59;4.70;99.90
12013;DHT22;6065;48.138;16.402;2023-01-08T07:53:25;4.60;99.90
12013;DHT22;6065;48.138;16.402;2023-01-08T07:55:52;4.60;99.90
12013;DHT22;6065;48.138;16.402;2023-01-08T07:58:23;4.50;99.90
12013;DHT22;6065;48.138;16.402;2023-01-08T08:00:50;4.40;99.90
12013;DHT22;6065;48.138;16.402;2023-01-08T08:03:17;4.30;99.90
12013;DHT22;6065;48.138;16.402;2023-01-08T08:05:43;4.30;99.90
12013;DHT22;6065;48.138;16.402;2023-01-08T08:08:11;4.30;99.90
12013;DHT22;6065;48.138;16.402;2023-01-08T08:10:39;4.40;99.90
12013;DHT22;6065;48.138;16.402;2023-01-08T08:13:06;4.20;99.90
12013;DHT22;6065;48.138;16.402;2023-01-08T08:15:33;4.20;99.90
12013;DHT22;6065;48.138;16.402;2023-01-08T08:17:59;4.20;99.90
12013;DHT22;6065;48.138;16.402;2023-01-08T08:20:26;4.20;99.90
12013;DHT22;6065;48.138;16.402;2023-01-08T08:22:58;4.20;99.90
12013;DHT22;6065;48.138;16.402;2023-01-08T08:25:27;4.30;99.90
12013;DHT22;6065;48.138;16.402;2023-01-08T08:27:54;4.30;99.90
12013;DHT22;6065;48.138;16.402;2023-01-08T08:30:21;4.30;99.90
12013;DHT22;6065;48.138;16.402;2023-01-08T08:32:48;4.30;99.90
12013;DHT22;6065;48.138;16.402;2023-01-08T08:35:15;4.40;99.90
12013;DHT22;6065;48.138;16.402;2023-01-08T08:37:42;4.40;99.90
12013;DHT22;6065;48.138;16.402;2023-01-08T08:40:09;4.40;99.90
12013;DHT22;6065;48.138;16.402;2023-01-08T08:42:37;4.40;99.90
12013;DHT22;6065;48.138;16.402;2023-01-08T08:45:04;4.40;99.90
12013;DHT22;6065;48.138;16.402;2023-01-08T08:47:31;4.50;99.90
12013;DHT22;6065;48.138;16.402;2023-01-08T08:49:58;4.50;99.90
12013;DHT22;6065;48.138;16.402;2023-01-08T08:52:24;4.50;99.90
12013;DHT22;6065;48.138;16.402;2023-01-08T08:54:51;4.50;99.90
12013;DHT22;6065;48.138;16.402;2023-01-08T08:57:18;4.50;99.90
12013;DHT22;6065;48.138;16.402;2023-01-08T08:59:46;4.50;99.90
12013;DHT22;6065;48.138;16.402;2023-01-08T09:02:12;4.50;99.90
12013;DHT22;6065;48.138;16.402;2023-01-08T09:04:39;4.50;99.90
12013;DHT22;6065;48.138;16.402;2023-01-08T09:07:06;4.40;99.90
12013;DHT22;6065;48.138;16.402;2023-01-08T09:09:32;4.40;99.90
12013;DHT22;6065;48.138;16.402;2023-01-08T09:11:59;4.50;99.90
12013;DHT22;6065;48.138;16.402;2023-01-08T09:14:26;4.50;99.90
12013;DHT22;6065;48.138;16.402;2023-01-08T09:16:54;4.50;99.90
12013;DHT22;6065;48.138;16.402;2023-01-08T09:19:21;4.50;99.90
12013;DHT22;6065;48.138;16.402;2023-01-08T09:21:48;4.60;99.90
12013;DHT22;6065;48.138;16.402;2023-01-08T09:24:15;4.60;99.90
12013;DHT22;6065;48.138;16.402;2023-01-08T09:26:42;4.50;99.90
12013;DHT22;6065;48.138;16.402;2023-01-08T09:29:08;4.50;99.90
12013;DHT22;6065;48.138;16.402;2023-01-08T09:31:35;4.50;99.90
12013;DHT22;6065;48.138;16.402;2023-01-08T09:34:03;4.50;99.90
12013;DHT22;6065;48.138;16.402;2023-01-08T09:36:30;4.50;99.90
12013;DHT22;6065;48.138;16.402;2023-01-08T09:38:56;4.60;99.90
12013;DHT22;6065;48.138;16.402;2023-01-08T09:41:24;4.60;99.90
12013;DHT22;6065;48.138;16.402;2023-01-08T09:43:53;4.60;99.90
12013;DHT22;6065;48.138;16.402;2023-01-08T09:46:21;4.60;99.90
12013;DHT22;6065;48.138;16.402;2023-01-08T09:48:48;4.70;99.90
12013;DHT22;6065;48.138;16.402;2023-01-08T09:51:17;4.60;99.90
12013;DHT22;6065;48.138;16.402;2023-01-08T09:53:44;4.70;99.90
12013;DHT22;6065;48.138;16.402;2023-01-08T09:56:12;4.70;99.90
12013;DHT22;6065;48.138;16.402;2023-01-08T09:58:40;4.80;99.90
12013;DHT22;6065;48.138;16.402;2023-01-08T10:01:09;4.80;99.90
12013;DHT22;6065;48.138;16.402;2023-01-08T10:03:38;4.80;99.90
12013;DHT22;6065;48.138;16.402;2023-01-08T10:06:08;4.80;99.90
12013;DHT22;6065;48.138;16.402;2023-01-08T10:08:37;4.80;99.90
12013;DHT22;6065;48.138;16.402;2023-01-08T10:11:04;4.90;99.90
12013;DHT22;6065;48.138;16.402;2023-01-08T10:13:31;4.90;99.90
12013;DHT22;6065;48.138;16.402;2023-01-08T10:15:58;4.90;99.90
12013;DHT22;6065;48.138;16.402;2023-01-08T10:18:25;4.90;99.90
12013;DHT22;6065;48.138;16.402;2023-01-08T10:20:52;4.90;99.90
12013;DHT22;6065;48.138;16.402;2023-01-08T10:23:19;4.90;99.90
12013;DHT22;6065;48.138;16.402;2023-01-08T10:25:49;4.90;99.90
12013;DHT22;6065;48.138;16.402;2023-01-08T10:28:18;5.00;99.90
12013;DHT22;6065;48.138;16.402;2023-01-08T10:30:45;5.00;99.90
12013;DHT22;6065;48.138;16.402;2023-01-08T10:33:13;5.00;99.90
12013;DHT22;6065;48.138;16.402;2023-01-08T10:35:41;5.00;99.90
12013;DHT22;6065;48.138;16.402;2023-01-08T10:38:20;5.10;99.90
12013;DHT22;6065;48.138;16.402;2023-01-08T10:40:50;5.00;99.90
12013;DHT22;6065;48.138;16.402;2023-01-08T10:43:17;5.00;99.90
12013;DHT22;6065;48.138;16.402;2023-01-08T10:45:53;5.00;99.90
12013;DHT22;6065;48.138;16.402;2023-01-08T10:48:20;5.00;99.90
12013;DHT22;6065;48.138;16.402;2023-01-08T10:50:48;5.00;99.90
12013;DHT22;6065;48.138;16.402;2023-01-08T10:53:21;5.00;99.90
12013;DHT22;6065;48.138;16.402;2023-01-08T10:55:57;5.00;99.90
12013;DHT22;6065;48.138;16.402;2023-01-08T10:58:26;5.00;99.90
12013;DHT22;6065;48.138;16.402;2023-01-08T11:00:53;5.00;99.90
12013;DHT22;6065;48.138;16.402;2023-01-08T11:03:22;5.00;99.90
12013;DHT22;6065;48.138;16.402;2023-01-08T11:05:52;5.00;99.90
12013;DHT22;6065;48.138;16.402;2023-01-08T11:08:19;5.00;99.90
12013;DHT22;6065;48.138;16.402;2023-01-08T11:10:51;4.90;99.90
12013;DHT22;6065;48.138;16.402;2023-01-08T11:13:20;4.90;99.90
12013;DHT22;6065;48.138;16.402;2023-01-08T11:15:47;4.90;99.90
12013;DHT22;6065;48.138;16.402;2023-01-08T11:18:23;4.90;99.90
12013;DHT22;6065;48.138;16.402;2023-01-08T11:20:51;4.90;99.90
12013;DHT22;6065;48.138;16.402;2023-01-08T11:23:19;5.00;99.90
12013;DHT22;6065;48.138;16.402;2023-01-08T11:25:47;5.00;99.90
12013;DHT22;6065;48.138;16.402;2023-01-08T11:28:18;5.00;99.90
12013;DHT22;6065;48.138;16.402;2023-01-08T11:30:49;5.00;99.90
12013;DHT22;6065;48.138;16.402;2023-01-08T11:33:20;5.00;99.90
12013;DHT22;6065;48.138;16.402;2023-01-08T11:35:47;5.10;99.90
12013;DHT22;6065;48.138;16.402;2023-01-08T11:38:15;5.10;99.90
12013;DHT22;6065;48.138;16.402;2023-01-08T11:40:43;5.10;99.90
12013;DHT22;6065;48.138;16.402;2023-01-08T11:43:17;5.20;99.90
12013;DHT22;6065;48.138;16.402;2023-01-08T11:45:55;5.20;99.90
12013;DHT22;6065;48.138;16.402;2023-01-08T11:48:29;5.20;99.90
12013;DHT22;6065;48.138;16.402;2023-01-08T11:51:02;5.20;99.90
12013;DHT22;6065;48.138;16.402;2023-01-08T11:53:31;5.10;99.90
12013;DHT22;6065;48.138;16.402;2023-01-08T11:56:03;5.20;99.90
12013;DHT22;6065;48.138;16.402;2023-01-08T11:58:39;5.20;99.90
12013;DHT22;6065;48.138;16.402;2023-01-08T12:01:19;5.20;99.90
12013;DHT22;6065;48.138;16.402;2023-01-08T12:03:51;5.20;99.90
12013;DHT22;6065;48.138;16.402;2023-01-08T12:06:23;5.20;99.90
12013;DHT22;6065;48.138;16.402;2023-01-08T12:08:54;5.20;99.90
12013;DHT22;6065;48.138;16.402;2023-01-08T12:11:24;5.10;99.90
12013;DHT22;6065;48.138;16.402;2023-01-08T12:13:54;5.00;99.90
12013;DHT22;6065;48.138;16.402;2023-01-08T12:16:34;5.00;99.90
12013;DHT22;6065;48.138;16.402;2023-01-08T12:19:09;4.90;99.90
12013;DHT22;6065;48.138;16.402;2023-01-08T12:21:41;4.90;99.90
12013;DHT22;6065;48.138;16.402;2023-01-08T12:24:14;4.90;99.90
12013;DHT22;6065;48.138;16.402;2023-01-08T12:26:46;4.90;99.90
12013;DHT22;6065;48.138;16.402;2023-01-08T12:32:18;4.80;99.90
12013;DHT22;6065;48.138;16.402;2023-01-08T12:34:49;4.70;99.90
12013;DHT22;6065;48.138;16.402;2023-01-08T12:37:20;4.60;99.90
12013;DHT22;6065;48.138;16.402;2023-01-08T12:39:49;4.60;99.90
12013;DHT22;6065;48.138;16.402;2023-01-08T12:42:21;4.60;99.90
12013;DHT22;6065;48.138;16.402;2023-01-08T12:45:02;4.60;99.90
12013;DHT22;6065;48.138;16.402;2023-01-08T12:47:32;4.60;99.90
12013;DHT22;6065;48.138;16.402;2023-01-08T12:50:03;4.60;99.90
12013;DHT22;6065;48.138;16.402;2023-01-08T12:52:34;4.70;99.90
12013;DHT22;6065;48.138;16.402;2023-01-08T12:55:04;4.70;99.90
12013;DHT22;6065;48.138;16.402;2023-01-08T12:57:33;4.80;99.90
12013;DHT22;6065;48.138;16.402;2023-01-08T13:00:00;4.80;99.90
12013;DHT22;6065;48.138;16.402;2023-01-08T13:02:33;4.90;99.90
12013;DHT22;6065;48.138;16.402;2023-01-08T13:05:12;4.90;99.90
12013;DHT22;6065;48.138;16.402;2023-01-08T13:07:41;4.80;99.90
12013;DHT22;6065;48.138;16.402;2023-01-08T13:10:18;4.80;99.90
12013;DHT22;6065;48.138;16.402;2023-01-08T13:12:48;4.90;99.90
12013;DHT22;6065;48.138;16.402;2023-01-08T13:15:19;4.90;99.90
12013;DHT22;6065;48.138;16.402;2023-01-08T13:17:48;4.90;99.90
12013;DHT22;6065;48.138;16.402;2023-01-08T13:20:19;5.00;99.90
12013;DHT22;6065;48.138;16.402;2023-01-08T13:22:50;5.00;99.90
12013;DHT22;6065;48.138;16.402;2023-01-08T13:25:28;5.00;99.90
12013;DHT22;6065;48.138;16.402;2023-01-08T13:27:55;5.00;99.90
12013;DHT22;6065;48.138;16.402;2023-01-08T13:30:32;5.00;99.90
12013;DHT22;6065;48.138;16.402;2023-01-08T13:33:01;5.00;99.90
12013;DHT22;6065;48.138;16.402;2023-01-08T13:35:28;5.00;99.90
12013;DHT22;6065;48.138;16.402;2023-01-08T13:38:12;5.00;99.90
12013;DHT22;6065;48.138;16.402;2023-01-08T13:43:21;5.10;99.90
12013;DHT22;6065;48.138;16.402;2023-01-08T13:45:52;5.00;99.90
12013;DHT22;6065;48.138;16.402;2023-01-08T13:48:22;5.10;99.90
12013;DHT22;6065;48.138;16.402;2023-01-08T13:50:49;5.10;99.90
12013;DHT22;6065;48.138;16.402;2023-01-08T13:53:16;5.10;99.90
12013;DHT22;6065;48.138;16.402;2023-01-08T13:55:46;5.10;99.90
12013;DHT22;6065;48.138;16.402;2023-01-08T13:58:18;5.10;99.90
12013;DHT22;6065;48.138;16.402;2023-01-08T14:00:46;5.10;99.90
12013;DHT22;6065;48.138;16.402;2023-01-08T14:03:25;5.20;99.90
12013;DHT22;6065;48.138;16.402;2023-01-08T14:05:52;5.20;99.90
12013;DHT22;6065;48.138;16.402;2023-01-08T14:08:30;5.20;99.90
12013;DHT22;6065;48.138;16.402;2023-01-08T14:10:56;5.20;99.90
12013;DHT22;6065;48.138;16.402;2023-01-08T14:13:25;5.20;99.90
12013;DHT22;6065;48.138;16.402;2023-01-08T14:15:52;5.20;99.90
12013;DHT22;6065;48.138;16.402;2023-01-08T14:18:20;5.20;99.90
12013;DHT22;6065;48.138;16.402;2023-01-08T14:20:48;5.20;99.90
12013;DHT22;6065;48.138;16.402;2023-01-08T14:23:17;5.30;99.90
12013;DHT22;6065;48.138;16.402;2023-01-08T14:25:46;5.30;99.90
12013;DHT22;6065;48.138;16.402;2023-01-08T14:28:14;5.30;99.90
12013;DHT22;6065;48.138;16.402;2023-01-08T14:30:45;5.30;99.90
12013;DHT22;6065;48.138;16.402;2023-01-08T14:33:12;5.30;99.90
12013;DHT22;6065;48.138;16.402;2023-01-08T14:35:39;5.30;99.90
12013;DHT22;6065;48.138;16.402;2023-01-08T14:38:11;5.30;99.90
12013;DHT22;6065;48.138;16.402;2023-01-08T14:40:38;5.30;99.90
12013;DHT22;6065;48.138;16.402;2023-01-08T14:43:07;5.30;99.90
12013;DHT22;6065;48.138;16.402;2023-01-08T14:45:35;5.30;99.90
12013;DHT22;6065;48.138;16.402;2023-01-08T14:48:07;5.30;99.90
12013;DHT22;6065;48.138;16.402;2023-01-08T14:50:35;5.30;99.90
12013;DHT22;6065;48.138;16.402;2023-01-08T14:53:03;5.30;99.90
12013;DHT22;6065;48.138;16.402;2023-01-08T14:55:32;5.40;99.90
12013;DHT22;6065;48.138;16.402;2023-01-08T14:58:01;5.40;99.90
12013;DHT22;6065;48.138;16.402;2023-01-08T15:00:28;5.40;99.90
12013;DHT22;6065;48.138;16.402;2023-01-08T15:02:55;5.40;99.90
12013;DHT22;6065;48.138;16.402;2023-01-08T15:05:24;5.40;99.90
12013;DHT22;6065;48.138;16.402;2023-01-08T15:07:53;5.40;99.90
12013;DHT22;6065;48.138;16.402;2023-01-08T15:10:22;5.40;99.90
12013;DHT22;6065;48.138;16.402;2023-01-08T15:12:56;5.40;99.90
12013;DHT22;6065;48.138;16.402;2023-01-08T15:15:25;5.40;99.90
12013;DHT22;6065;48.138;16.402;2023-01-08T15:17:52;5.40;99.90
12013;DHT22;6065;48.138;16.402;2023-01-08T15:20:19;5.40;99.90
12013;DHT22;6065;48.138;16.402;2023-01-08T15:22:48;5.40;99.90
12013;DHT22;6065;48.138;16.402;2023-01-08T15:25:15;5.40;99.90
12013;DHT22;6065;48.138;16.402;2023-01-08T15:27:48;5.40;99.90
12013;DHT22;6065;48.138;16.402;2023-01-08T15:30:25;5.40;99.90
12013;DHT22;6065;48.138;16.402;2023-01-08T15:32:52;5.40;99.90
12013;DHT22;6065;48.138;16.402;2023-01-08T15:35:18;5.40;99.90
12013;DHT22;6065;48.138;16.402;2023-01-08T15:37:49;5.40;99.90
12013;DHT22;6065;48.138;16.402;2023-01-08T15:40:16;5.40;99.90
12013;DHT22;6065;48.138;16.402;2023-01-08T15:42:43;5.40;99.90
12013;DHT22;6065;48.138;16.402;2023-01-08T15:45:28;5.40;99.90
12013;DHT22;6065;48.138;16.402;2023-01-08T15:47:56;5.40;99.90
12013;DHT22;6065;48.138;16.402;2023-01-08T15:50:23;5.40;99.90
12013;DHT22;6065;48.138;16.402;2023-01-08T15:52:50;5.50;99.90
12013;DHT22;6065;48.138;16.402;2023-01-08T15:55:17;5.40;99.90
12013;DHT22;6065;48.138;16.402;2023-01-08T15:57:44;5.50;99.90
12013;DHT22;6065;48.138;16.402;2023-01-08T16:00:12;5.50;99.90